Caney, Kansas
Current Conditions -  °F | °C
As of 11:15 AM on Friday 24 Oct 2014 (Local Time) from KIDP Reporting Station
Clear Clear  
Wind Chill: 66°   Ceiling: Unl
Heat Index: 66°   Visibility: 7mi
Dew Point: 55°   Wind: 13mph
Humidity: 68%   Direction: 210°SSW
Pressure: 30.1"   Gusts: NA
Location:  37.01°N, 95.94°W
Report Text: KIDP 241615Z AUTO 21011KT 7SM CLR 19/13 A3010 RMK AO2
Loading
Personal Weather Stations






























Interactive Weather Map
Tropical Storm Tracking
New forecast layout! Learn more

10-Day Weather Forecast

Advertisements
Track Severe Weather on mobile